createdAt,value
2019-05-18T00:00:09.082Z,25.63
2019-05-18T00:02:37.414Z,25.64
2019-05-18T00:05:08.874Z,25.63
2019-05-18T00:07:37.179Z,25.63
2019-05-18T00:10:06.398Z,25.63
2019-05-18T00:12:34.888Z,25.61
2019-05-18T00:15:04.331Z,25.63
2019-05-18T00:17:32.653Z,25.63
2019-05-18T00:20:00.953Z,25.61
2019-05-18T00:22:29.275Z,25.61
2019-05-18T00:24:57.641Z,25.61
2019-05-18T00:27:25.955Z,25.58
2019-05-18T00:29:54.450Z,25.61
2019-05-18T00:32:23.120Z,25.60
2019-05-18T00:34:51.470Z,25.61
2019-05-18T00:37:19.775Z,25.59
2019-05-18T00:39:48.242Z,25.60
2019-05-18T00:42:16.599Z,25.60
2019-05-18T00:44:44.983Z,25.60
2019-05-18T00:47:13.276Z,25.56
2019-05-18T00:49:41.696Z,25.50
2019-05-18T00:52:10.103Z,25.60
2019-05-18T00:54:38.484Z,25.58
2019-05-18T00:57:06.850Z,25.59
2019-05-18T00:59:35.334Z,25.58
2019-05-18T01:02:03.694Z,25.59
2019-05-18T01:04:32.020Z,25.59
2019-05-18T01:07:00.415Z,25.59
2019-05-18T01:09:28.909Z,25.59
2019-05-18T01:11:57.298Z,25.58
2019-05-18T01:14:25.605Z,25.46
2019-05-18T01:16:54.022Z,25.58
2019-05-18T01:19:22.440Z,25.58
2019-05-18T01:21:50.753Z,25.58
2019-05-18T01:24:19.435Z,25.57
2019-05-18T01:26:47.727Z,25.44
2019-05-18T01:29:16.028Z,25.55
2019-05-18T01:31:44.346Z,25.56
2019-05-18T01:34:12.640Z,25.44
2019-05-18T01:36:40.954Z,25.55
2019-05-18T01:39:09.340Z,25.57
2019-05-18T01:41:37.745Z,25.42
2019-05-18T01:44:06.179Z,25.56
2019-05-18T01:46:34.859Z,25.56
2019-05-18T01:49:03.315Z,25.55
2019-05-18T01:51:31.629Z,25.55
2019-05-18T01:53:59.991Z,25.55
2019-05-18T01:56:28.316Z,25.47
2019-05-18T01:58:56.605Z,25.54
2019-05-18T02:01:24.935Z,25.53
2019-05-18T02:03:53.226Z,25.45
2019-05-18T02:06:21.550Z,25.45
2019-05-18T02:08:49.833Z,25.54
2019-05-18T02:11:18.151Z,25.53
2019-05-18T02:13:46.513Z,25.52
2019-05-18T02:16:14.829Z,25.52
2019-05-18T02:18:43.130Z,25.38
2019-05-18T02:21:11.450Z,25.52
2019-05-18T02:23:40.191Z,25.52
2019-05-18T02:26:08.479Z,25.50
2019-05-18T02:28:36.789Z,25.50
2019-05-18T02:31:07.449Z,25.50
2019-05-18T02:33:35.118Z,25.49
2019-05-18T02:36:03.545Z,25.44
2019-05-18T02:38:31.863Z,25.36
2019-05-18T02:41:00.162Z,25.48
2019-05-18T02:43:28.472Z,25.48
2019-05-18T02:45:56.769Z,25.49
2019-05-18T02:48:25.155Z,25.40
2019-05-18T02:50:53.509Z,25.48
2019-05-18T02:53:21.824Z,25.47
2019-05-18T02:55:50.116Z,25.43
2019-05-18T02:58:18.434Z,25.48
2019-05-18T03:00:47.484Z,25.47
2019-05-18T03:03:15.945Z,25.34
2019-05-18T03:05:46.455Z,25.47
2019-05-18T03:08:14.775Z,25.48
2019-05-18T03:10:43.127Z,25.47
2019-05-18T03:13:11.431Z,25.47
2019-05-18T03:15:39.829Z,25.47
2019-05-18T03:18:08.228Z,25.47
2019-05-18T03:20:36.616Z,25.47
2019-05-18T03:23:05.009Z,25.45
2019-05-18T03:25:33.309Z,25.45
2019-05-18T03:28:01.597Z,25.45
2019-05-18T03:30:30.004Z,25.43
2019-05-18T03:32:58.290Z,25.44
2019-05-18T03:35:27.119Z,25.42
2019-05-18T03:37:55.392Z,25.44
2019-05-18T03:40:23.709Z,25.42
2019-05-18T03:42:52.072Z,25.32
2019-05-18T03:45:20.427Z,25.42
2019-05-18T03:47:48.925Z,25.41
2019-05-18T03:50:17.473Z,25.41
2019-05-18T03:52:45.765Z,25.41
2019-05-18T03:55:14.345Z,25.40
2019-05-18T03:57:42.794Z,25.40
2019-05-18T04:00:11.615Z,25.27
2019-05-18T04:02:40.000Z,25.41
2019-05-18T04:05:09.115Z,25.41
2019-05-18T04:07:37.388Z,25.41
2019-05-18T04:10:06.636Z,25.39
2019-05-18T04:12:35.013Z,25.38
2019-05-18T04:15:04.242Z,25.38
2019-05-18T04:17:32.523Z,25.38
2019-05-18T04:20:00.909Z,25.38
2019-05-18T04:22:30.816Z,25.37
2019-05-18T04:25:00.598Z,25.36
2019-05-18T04:27:28.876Z,25.36
2019-05-18T04:29:57.305Z,25.35
2019-05-18T04:32:25.612Z,25.23
2019-05-18T04:34:53.995Z,25.35
2019-05-18T04:37:22.301Z,25.35
2019-05-18T04:39:50.664Z,25.35
2019-05-18T04:42:18.970Z,25.34
2019-05-18T04:44:47.661Z,25.35
2019-05-18T04:47:16.311Z,25.33
2019-05-18T04:50:03.546Z,25.33
2019-05-18T04:52:15.005Z,25.33
2019-05-18T04:54:43.463Z,25.32
2019-05-18T04:57:11.792Z,25.20
2019-05-18T04:59:40.083Z,25.32
2019-05-18T05:02:08.430Z,25.32
2019-05-18T05:04:36.710Z,25.32
2019-05-18T05:07:05.028Z,25.33
2019-05-18T05:09:33.483Z,25.32
2019-05-18T05:12:01.896Z,25.32
2019-05-18T05:14:30.367Z,25.33
2019-05-18T05:16:58.693Z,25.31
2019-05-18T05:19:27.079Z,25.33
2019-05-18T05:21:55.386Z,25.30
2019-05-18T05:24:23.792Z,25.32
2019-05-18T05:26:52.142Z,25.29
2019-05-18T05:29:20.401Z,25.29
2019-05-18T05:31:48.708Z,25.30
2019-05-18T05:34:16.993Z,25.28
2019-05-18T05:36:45.303Z,25.30
2019-05-18T05:39:13.626Z,25.31
2019-05-18T05:41:41.915Z,25.30
2019-05-18T05:44:10.224Z,25.32
2019-05-18T05:46:38.520Z,25.30
2019-05-18T05:49:06.837Z,25.30
2019-05-18T05:51:35.145Z,25.31
2019-05-18T05:54:03.459Z,25.29
2019-05-18T05:56:31.765Z,24.90
2019-05-18T05:59:00.067Z,25.32
2019-05-18T06:01:28.391Z,25.32
2019-05-18T06:03:56.701Z,25.18
2019-05-18T06:06:24.999Z,25.33
2019-05-18T06:08:53.331Z,25.32
2019-05-18T06:11:21.671Z,25.02
2019-05-18T06:13:49.995Z,25.26
2019-05-18T06:16:18.362Z,25.33
2019-05-18T06:18:46.866Z,25.33
2019-05-18T06:21:15.232Z,25.34
2019-05-18T06:23:43.552Z,25.06
2019-05-18T06:26:11.853Z,25.32
2019-05-18T06:28:40.150Z,25.33
2019-05-18T06:31:08.571Z,25.33
2019-05-18T06:33:36.924Z,25.32
2019-05-18T06:36:05.311Z,25.33
2019-05-18T06:38:33.647Z,25.33
2019-05-18T06:41:01.965Z,25.34
2019-05-18T06:43:30.263Z,25.19
2019-05-18T06:45:59.384Z,25.34
2019-05-18T06:48:27.852Z,25.20
2019-05-18T06:51:06.892Z,25.37
2019-05-18T06:53:26.263Z,25.35
2019-05-18T06:55:54.722Z,25.33
2019-05-18T06:58:23.746Z,25.26
2019-05-18T07:00:52.072Z,25.20
2019-05-18T07:03:20.563Z,25.13
2019-05-18T07:05:49.149Z,25.08
2019-05-18T07:08:17.493Z,25.06
2019-05-18T07:10:45.808Z,25.04
2019-05-18T07:13:14.475Z,25.06
2019-05-18T07:15:42.957Z,25.04
2019-05-18T07:18:11.319Z,25.03
2019-05-18T07:20:39.701Z,24.97
2019-05-18T07:23:08.026Z,24.95
2019-05-18T07:25:36.331Z,24.95
2019-05-18T07:28:04.808Z,24.98
2019-05-18T07:30:33.122Z,24.97
2019-05-18T07:33:01.431Z,24.94
2019-05-18T07:35:29.747Z,24.95
2019-05-18T07:37:58.176Z,24.96
2019-05-18T07:40:26.771Z,24.93
2019-05-18T07:42:55.245Z,24.94
2019-05-18T07:45:23.605Z,24.94
2019-05-18T07:47:51.924Z,24.90
2019-05-18T07:50:20.505Z,24.90
2019-05-18T07:52:48.889Z,24.91
2019-05-18T07:55:17.172Z,24.92
2019-05-18T07:57:45.517Z,24.90
2019-05-18T08:00:14.100Z,24.96
2019-05-18T08:02:42.480Z,25.01
2019-05-18T08:05:10.837Z,24.99
2019-05-18T08:07:39.321Z,25.00
2019-05-18T08:10:09.463Z,25.04
2019-05-18T08:12:37.864Z,25.06
2019-05-18T08:15:08.156Z,24.99
2019-05-18T08:17:36.482Z,25.03
2019-05-18T08:20:07.207Z,25.12
2019-05-18T08:22:35.553Z,25.15
2019-05-18T08:25:05.850Z,25.02
2019-05-18T08:27:34.163Z,24.79
2019-05-18T08:30:02.494Z,24.84
2019-05-18T08:32:30.786Z,24.84
2019-05-18T08:34:59.113Z,24.73
2019-05-18T08:37:27.549Z,24.71
2019-05-18T08:39:55.873Z,24.55
2019-05-18T08:42:24.241Z,24.42
2019-05-18T08:44:52.558Z,24.12
2019-05-18T08:47:20.888Z,24.09
2019-05-18T08:49:49.188Z,24.18
2019-05-18T08:52:17.498Z,24.24
2019-05-18T08:54:45.823Z,24.32
2019-05-18T08:57:14.138Z,24.38
2019-05-18T08:59:42.490Z,24.19
2019-05-18T09:02:10.857Z,24.52
2019-05-18T09:04:40.406Z,24.58
2019-05-18T09:07:08.718Z,24.64
2019-05-18T09:09:37.221Z,24.68
2019-05-18T09:12:05.869Z,24.75
2019-05-18T09:14:34.314Z,24.80
2019-05-18T09:17:02.566Z,24.85
2019-05-18T09:19:30.945Z,24.89
2019-05-18T09:21:59.217Z,24.91
2019-05-18T09:24:27.575Z,24.98
2019-05-18T09:26:55.854Z,25.04
2019-05-18T09:29:24.221Z,25.08
2019-05-18T09:31:52.660Z,25.13
2019-05-18T09:34:21.026Z,25.18
2019-05-18T09:36:49.458Z,25.23
2019-05-18T09:39:19.282Z,25.27
2019-05-18T09:41:47.611Z,25.31
2019-05-18T09:44:16.268Z,25.33
2019-05-18T09:46:44.754Z,25.39
2019-05-18T09:49:13.054Z,25.42
2019-05-18T09:51:41.366Z,25.44
2019-05-18T09:54:09.706Z,25.48
2019-05-18T09:56:38.106Z,25.50
2019-05-18T09:59:06.629Z,25.54
2019-05-18T10:01:35.051Z,25.57
2019-05-18T10:04:03.347Z,25.60
2019-05-18T10:06:31.839Z,25.62
2019-05-18T10:09:00.131Z,25.66
2019-05-18T10:11:28.494Z,25.68
2019-05-18T10:13:56.788Z,25.71
2019-05-18T10:16:25.108Z,25.74
2019-05-18T10:18:53.405Z,25.75
2019-05-18T10:21:21.733Z,25.78
2019-05-18T10:23:50.025Z,25.80
2019-05-18T10:26:18.337Z,25.83
2019-05-18T10:28:46.719Z,25.85
2019-05-18T10:31:15.282Z,25.86
2019-05-18T10:33:43.595Z,25.87
2019-05-18T10:36:11.984Z,25.92
2019-05-18T10:38:40.229Z,25.93
2019-05-18T10:41:08.535Z,25.93
2019-05-18T10:43:36.873Z,25.92
2019-05-18T10:46:05.236Z,25.70
2019-05-18T10:48:33.555Z,25.98
2019-05-18T10:51:05.301Z,26.00
2019-05-18T10:53:31.877Z,26.01
2019-05-18T10:56:00.177Z,26.03
2019-05-18T10:58:28.531Z,26.05
2019-05-18T11:00:56.842Z,26.07
2019-05-18T11:03:25.288Z,26.09
2019-05-18T11:05:53.579Z,26.11
2019-05-18T11:08:22.112Z,26.11
2019-05-18T11:10:50.573Z,26.13
2019-05-18T11:13:19.238Z,26.15
2019-05-18T11:15:47.596Z,26.16
2019-05-18T11:18:15.935Z,26.17
2019-05-18T11:20:44.241Z,26.18
2019-05-18T11:23:12.551Z,26.19
2019-05-18T11:25:41.615Z,26.18
2019-05-18T11:28:09.983Z,26.20
2019-05-18T11:30:38.292Z,26.20
2019-05-18T11:33:06.673Z,26.21
2019-05-18T11:35:35.127Z,26.22
2019-05-18T11:38:03.508Z,26.22
2019-05-18T11:40:31.899Z,26.24
2019-05-18T11:43:00.320Z,26.27
2019-05-18T11:45:28.972Z,26.26
2019-05-18T11:47:57.277Z,26.25
2019-05-18T11:50:25.731Z,26.27
2019-05-18T11:52:54.191Z,26.29
2019-05-18T11:55:24.814Z,26.28
2019-05-18T11:57:53.182Z,26.31
2019-05-18T12:00:22.176Z,26.32
2019-05-18T12:02:50.544Z,26.31
2019-05-18T12:05:18.867Z,26.32
2019-05-18T12:07:47.206Z,26.32
2019-05-18T12:10:18.613Z,26.30
2019-05-18T12:12:47.136Z,26.34
2019-05-18T12:15:15.875Z,26.35
2019-05-18T12:17:44.247Z,26.36
2019-05-18T12:20:13.032Z,26.37
2019-05-18T12:22:41.317Z,26.36
2019-05-18T12:25:10.483Z,26.38
2019-05-18T12:27:38.927Z,26.39
2019-05-18T12:30:08.628Z,26.39
2019-05-18T12:32:37.126Z,26.40
2019-05-18T12:35:07.639Z,26.39
2019-05-18T12:37:35.963Z,26.43
2019-05-18T12:40:06.122Z,26.43
2019-05-18T12:42:34.503Z,26.44
2019-05-18T12:45:02.988Z,26.45
2019-05-18T12:47:31.485Z,26.45
2019-05-18T12:49:59.784Z,26.46
2019-05-18T12:52:28.157Z,26.48
2019-05-18T12:54:56.499Z,26.48
2019-05-18T12:57:24.823Z,26.49
2019-05-18T12:59:53.184Z,26.50
2019-05-18T13:02:21.512Z,26.49
2019-05-18T13:04:49.814Z,26.50
2019-05-18T13:07:18.162Z,26.50
2019-05-18T13:09:46.541Z,26.51
2019-05-18T13:12:15.067Z,26.51
2019-05-18T13:14:43.374Z,26.52
2019-05-18T13:17:11.714Z,26.53
2019-05-18T13:19:40.054Z,26.53
2019-05-18T13:22:08.487Z,26.55
2019-05-18T13:24:44.914Z,26.56
2019-05-18T13:27:06.778Z,26.47
2019-05-18T13:29:35.154Z,26.56
2019-05-18T13:32:03.701Z,26.57
2019-05-18T13:34:32.055Z,26.57
2019-05-18T13:37:00.423Z,26.58
2019-05-18T13:39:28.830Z,26.58
2019-05-18T13:41:57.214Z,26.58
2019-05-18T13:44:25.532Z,26.59
2019-05-18T13:46:54.013Z,26.52
2019-05-18T13:49:22.321Z,26.56
2019-05-18T13:51:50.777Z,26.46
2019-05-18T13:54:19.107Z,26.56
2019-05-18T13:56:47.484Z,26.55
2019-05-18T13:59:15.812Z,26.53
2019-05-18T14:01:44.110Z,26.52
2019-05-18T14:04:12.495Z,26.16
2019-05-18T14:06:40.892Z,26.55
2019-05-18T14:09:09.225Z,26.49
2019-05-18T14:11:37.529Z,26.52
2019-05-18T14:14:06.049Z,26.52
2019-05-18T14:16:34.389Z,26.43
2019-05-18T14:19:03.171Z,26.52
2019-05-18T14:21:31.455Z,26.41
2019-05-18T14:23:59.873Z,26.51
2019-05-18T14:26:28.310Z,26.48
2019-05-18T14:28:56.754Z,26.49
2019-05-18T14:31:25.048Z,26.51
2019-05-18T14:33:53.420Z,26.52
2019-05-18T14:36:21.835Z,26.53
2019-05-18T14:38:50.167Z,26.53
2019-05-18T14:41:18.714Z,26.54
2019-05-18T14:43:46.997Z,26.55
2019-05-18T14:46:15.331Z,26.57
2019-05-18T14:48:43.745Z,26.47
2019-05-18T14:51:12.025Z,26.57
2019-05-18T14:53:40.507Z,26.57
2019-05-18T14:56:08.958Z,26.53
2019-05-18T14:58:37.366Z,26.58
2019-05-18T15:01:07.007Z,26.59
2019-05-18T15:03:35.300Z,26.59
2019-05-18T15:06:03.711Z,26.61
2019-05-18T15:08:32.000Z,26.55
2019-05-18T15:11:00.401Z,26.61
2019-05-18T15:13:28.705Z,26.52
2019-05-18T15:15:57.294Z,26.62
2019-05-18T15:18:25.599Z,26.56
2019-05-18T15:20:53.989Z,26.61
2019-05-18T15:23:22.368Z,26.59
2019-05-18T15:25:51.475Z,26.51
2019-05-18T15:28:20.118Z,26.28
2019-05-18T15:30:48.453Z,26.60
2019-05-18T15:33:16.794Z,26.59
2019-05-18T15:35:45.215Z,26.59
2019-05-18T15:38:13.705Z,26.60
2019-05-18T15:40:42.007Z,26.59
2019-05-18T15:43:10.305Z,26.59
2019-05-18T15:45:38.626Z,26.59
2019-05-18T15:48:07.010Z,26.50
2019-05-18T15:50:35.350Z,26.59
2019-05-18T15:53:03.686Z,26.58
2019-05-18T15:55:32.037Z,26.59
2019-05-18T15:58:00.331Z,26.59
2019-05-18T16:00:28.710Z,26.58
2019-05-18T16:02:57.196Z,26.59
2019-05-18T16:05:25.508Z,26.58
2019-05-18T16:07:53.901Z,26.58
2019-05-18T16:10:22.444Z,26.60
2019-05-18T16:12:50.807Z,26.59
2019-05-18T16:15:19.179Z,26.61
2019-05-18T16:17:47.564Z,26.60
2019-05-18T16:20:16.289Z,26.62
2019-05-18T16:22:44.834Z,26.62
2019-05-18T16:25:13.434Z,26.62
2019-05-18T16:27:41.831Z,26.12
2019-05-18T16:30:10.768Z,26.63
2019-05-18T16:32:39.152Z,26.63
2019-05-18T16:35:10.861Z,26.62
2019-05-18T16:37:39.252Z,26.63
2019-05-18T16:40:08.422Z,26.62
2019-05-18T16:42:36.844Z,26.60
2019-05-18T16:45:08.733Z,26.62
2019-05-18T16:47:37.060Z,26.63
2019-05-18T16:50:08.946Z,26.65
2019-05-18T16:52:37.270Z,26.64
2019-05-18T16:55:09.389Z,26.65
2019-05-18T16:57:37.696Z,26.65
2019-05-18T17:00:15.957Z,26.61
2019-05-18T17:02:42.730Z,26.66
2019-05-18T17:05:11.985Z,26.66
2019-05-18T17:07:40.403Z,26.66
2019-05-18T17:10:09.173Z,26.65
2019-05-18T17:12:37.557Z,26.66
2019-05-18T17:15:10.004Z,26.66
2019-05-18T17:17:38.441Z,26.65
2019-05-18T17:20:08.153Z,26.66
2019-05-18T17:22:36.443Z,26.65
2019-05-18T17:25:05.497Z,26.64
2019-05-18T17:27:33.889Z,26.65
2019-05-18T17:30:02.569Z,26.65
2019-05-18T17:32:30.881Z,26.66
2019-05-18T17:34:59.300Z,26.64
2019-05-18T17:37:27.634Z,26.64
2019-05-18T17:39:55.953Z,26.64
2019-05-18T17:42:24.325Z,26.63
2019-05-18T17:44:52.640Z,26.64
2019-05-18T17:47:21.182Z,26.63
2019-05-18T17:49:49.520Z,26.64
2019-05-18T17:52:17.825Z,26.55
2019-05-18T17:54:46.319Z,26.62
2019-05-18T17:57:14.623Z,26.63
2019-05-18T17:59:42.935Z,26.63
2019-05-18T18:02:12.886Z,26.62
2019-05-18T18:04:41.225Z,26.63
2019-05-18T18:07:11.912Z,26.36
2019-05-18T18:09:40.190Z,26.62
2019-05-18T18:12:08.471Z,26.61
2019-05-18T18:14:36.796Z,26.56
2019-05-18T18:17:05.337Z,26.58
2019-05-18T18:19:33.657Z,26.58
2019-05-18T18:22:02.083Z,26.58
2019-05-18T18:24:30.384Z,26.58
2019-05-18T18:26:58.698Z,26.59
2019-05-18T18:29:27.083Z,26.58
2019-05-18T18:31:55.558Z,26.47
2019-05-18T18:34:23.836Z,26.57
2019-05-18T18:36:52.173Z,26.57
2019-05-18T18:39:20.503Z,26.56
2019-05-18T18:41:48.920Z,26.57
2019-05-18T18:44:17.283Z,26.56
2019-05-18T18:46:45.646Z,26.55
2019-05-18T18:49:14.016Z,26.47
2019-05-18T18:51:42.330Z,26.56
2019-05-18T18:54:12.625Z,26.55
2019-05-18T18:56:40.810Z,26.53
2019-05-18T18:59:09.145Z,26.53
2019-05-18T19:01:37.594Z,26.52
2019-05-18T19:04:05.870Z,26.51
2019-05-18T19:06:34.357Z,26.51
2019-05-18T19:09:03.001Z,26.50
2019-05-18T19:11:31.376Z,26.51
2019-05-18T19:13:59.838Z,26.51
2019-05-18T19:16:28.310Z,26.50
2019-05-18T19:18:56.641Z,26.50
2019-05-18T19:21:24.935Z,26.50
2019-05-18T19:23:53.284Z,26.49
2019-05-18T19:26:21.598Z,26.50
2019-05-18T19:28:49.986Z,26.48
2019-05-18T19:31:18.289Z,26.46
2019-05-18T19:33:46.770Z,26.47
2019-05-18T19:36:15.097Z,26.47
2019-05-18T19:38:43.436Z,26.47
2019-05-18T19:41:11.728Z,26.46
2019-05-18T19:43:40.081Z,26.45
2019-05-18T19:46:08.449Z,26.45
2019-05-18T19:48:36.896Z,26.42
2019-05-18T19:51:05.203Z,26.46
2019-05-18T19:53:33.523Z,26.45
2019-05-18T19:56:01.900Z,26.45
2019-05-18T19:58:30.241Z,26.45
2019-05-18T20:00:58.790Z,26.44
2019-05-18T20:03:27.103Z,26.45
2019-05-18T20:05:55.396Z,26.45
2019-05-18T20:08:23.735Z,26.42
2019-05-18T20:10:52.045Z,26.43
2019-05-18T20:13:20.379Z,26.44
2019-05-18T20:15:48.678Z,26.42
2019-05-18T20:18:16.999Z,26.41
2019-05-18T20:20:45.308Z,26.42
2019-05-18T20:23:13.781Z,26.41
2019-05-18T20:25:42.101Z,26.41
2019-05-18T20:28:22.968Z,26.39
2019-05-18T20:30:40.482Z,26.39
2019-05-18T20:33:08.814Z,26.36
2019-05-18T20:35:37.205Z,26.24
2019-05-18T20:38:05.592Z,26.37
2019-05-18T20:40:33.983Z,26.37
2019-05-18T20:43:02.554Z,26.37
2019-05-18T20:45:31.411Z,26.37
2019-05-18T20:47:59.800Z,26.37
2019-05-18T20:50:28.114Z,26.35
2019-05-18T20:52:56.502Z,26.34
2019-05-18T20:55:24.830Z,26.35
2019-05-18T20:57:53.129Z,26.34
2019-05-18T21:00:21.530Z,26.32
2019-05-18T21:02:49.861Z,26.34
2019-05-18T21:05:18.299Z,26.32
2019-05-18T21:07:48.984Z,26.32
2019-05-18T21:10:17.587Z,26.30
2019-05-18T21:12:45.895Z,26.31
2019-05-18T21:15:14.586Z,26.30
2019-05-18T21:17:42.892Z,26.29
2019-05-18T21:20:11.264Z,26.29
